Time;durP1;ratioP1;P1;durP2;ratioP2;P2;SDS_P1;SDS_P2;PMS_P1;PMS_P2;Temp;Humidity;BMP_temperature;BMP_pressure;BME280_temperature;BME280_humidity;BME280_pressure;Samples;Min_cycle;Max_cycle;Signal;HPM_P1;HPM_P2
2022/01/07 00:00:39;;;;;;;18.98;6.72;;;;;;;2.22;100.00;101397.13;10458820;28;20065;-56
2022/01/07 00:05:42;;;;;;;15.43;6.22;;;;;;;2.18;100.00;101367.03;10458495;28;20053;-58
2022/01/07 00:10:45;;;;;;;18.45;6.68;;;;;;;2.19;100.00;101361.00;10457791;28;20052;-58
2022/01/07 00:15:47;;;;;;;17.73;6.82;;;;;;;2.32;98.66;101358.25;10458052;28;20087;-55
2022/01/07 00:20:51;;;;;;;11.65;5.88;;;;;;;2.25;98.77;101347.13;10457928;28;20099;-53
2022/01/07 00:25:53;;;;;;;16.55;5.85;;;;;;;2.33;98.23;101332.38;10457881;28;20048;-58
2022/01/07 00:30:56;;;;;;;19.13;7.07;;;;;;;2.38;98.38;101337.50;10457886;28;20068;-55
2022/01/07 00:35:59;;;;;;;19.13;6.47;;;;;;;2.40;97.42;101328.84;10457520;28;20049;-58
2022/01/07 00:41:01;;;;;;;18.48;7.25;;;;;;;2.42;99.11;101326.22;10457438;28;20060;-57
2022/01/07 00:46:04;;;;;;;14.15;7.22;;;;;;;2.38;98.16;101312.50;10456088;28;20084;-56
2022/01/07 00:51:06;;;;;;;15.05;6.72;;;;;;;2.26;100.00;101307.50;10456802;28;20048;-54
2022/01/07 00:56:08;;;;;;;18.17;7.05;;;;;;;2.12;100.00;101291.34;10456849;28;20485;-56
2022/01/07 01:01:11;;;;;;;18.48;7.38;;;;;;;2.12;100.00;101301.69;10456788;28;20059;-56
2022/01/07 01:06:14;;;;;;;12.93;7.60;;;;;;;1.96;100.00;101301.91;10456531;28;20060;-57
2022/01/07 01:11:16;;;;;;;20.60;7.40;;;;;;;1.78;100.00;101290.09;10456418;28;20488;-56
2022/01/07 01:16:18;;;;;;;18.08;7.30;;;;;;;1.79;100.00;101285.78;10456877;28;20056;-56
2022/01/07 01:21:21;;;;;;;17.17;7.05;;;;;;;1.72;100.00;101268.69;10459716;28;20477;-56
2022/01/07 01:26:23;;;;;;;16.77;8.68;;;;;;;1.62;100.00;101267.94;10464997;28;20052;-57
2022/01/07 01:31:26;;;;;;;18.35;10.77;;;;;;;1.72;100.00;101260.94;10463366;28;20049;-52
2022/01/07 01:36:28;;;;;;;19.75;9.00;;;;;;;1.58;100.00;101253.34;10464294;28;20052;-56
2022/01/07 01:41:31;;;;;;;21.38;9.45;;;;;;;1.59;100.00;101229.25;10464184;28;20409;-57
2022/01/07 01:46:34;;;;;;;21.20;8.88;;;;;;;1.59;100.00;101232.69;10462987;28;20053;-54
2022/01/07 01:51:36;;;;;;;20.38;9.13;;;;;;;1.71;100.00;101207.59;10462719;28;20041;-58
2022/01/07 01:56:41;;;;;;;22.25;9.95;;;;;;;1.71;100.00;101207.59;10463915;28;20056;-59
2022/01/07 02:01:43;;;;;;;19.67;9.15;;;;;;;1.76;100.00;101201.47;10463315;28;20059;-57
2022/01/07 02:06:46;;;;;;;24.55;9.75;;;;;;;1.71;100.00;101205.84;10463379;28;20124;-59
2022/01/07 02:11:48;;;;;;;19.20;9.25;;;;;;;1.77;100.00;101174.78;10462995;28;20481;-57
2022/01/07 02:16:50;;;;;;;15.60;7.97;;;;;;;1.87;100.00;101167.75;10463197;28;20051;-57
2022/01/07 02:21:53;;;;;;;21.00;7.63;;;;;;;1.96;100.00;101165.03;10462863;28;20055;-56
2022/01/07 02:26:55;;;;;;;18.08;8.65;;;;;;;1.82;100.00;101157.50;10462658;28;20045;-58
2022/01/07 02:31:58;;;;;;;14.70;8.00;;;;;;;1.80;100.00;101161.84;10462535;28;20052;-59
2022/01/07 02:37:00;;;;;;;15.70;6.88;;;;;;;1.93;100.00;101146.13;10461920;28;20052;-55
2022/01/07 02:42:03;;;;;;;9.32;6.55;;;;;;;1.93;100.00;101140.97;10461692;28;20072;-57
2022/01/07 02:47:06;;;;;;;15.27;6.47;;;;;;;1.96;100.00;101154.69;10460135;28;20056;-58
2022/01/07 02:52:08;;;;;;;14.85;6.82;;;;;;;2.09;100.00;101147.59;10459943;28;20489;-54
2022/01/07 02:57:10;;;;;;;14.88;6.45;;;;;;;1.97;100.00;101132.31;10461528;28;20049;-55
2022/01/07 03:02:13;;;;;;;16.33;6.85;;;;;;;1.97;100.00;101124.56;10460777;28;20049;-55
2022/01/07 03:07:15;;;;;;;17.40;7.10;;;;;;;1.92;100.00;101126.38;10461058;28;20055;-54
2022/01/07 03:12:18;;;;;;;20.38;6.50;;;;;;;1.98;100.00;101128.84;10460614;28;20481;-56
2022/01/07 03:17:20;;;;;;;11.63;5.63;;;;;;;1.91;100.00;101122.09;10460678;28;20049;-55
2022/01/07 03:22:22;;;;;;;12.75;6.70;;;;;;;2.05;100.00;101112.34;10460604;28;20056;-56
2022/01/07 03:27:24;;;;;;;9.38;5.13;;;;;;;1.96;100.00;101107.38;10460667;28;20055;-55
2022/01/07 03:32:27;;;;;;;11.90;5.05;;;;;;;1.96;100.00;101097.88;10460259;28;20060;-58
2022/01/07 03:37:29;;;;;;;14.45;5.40;;;;;;;1.98;100.00;101101.28;10459631;28;20049;-55
2022/01/07 03:42:32;;;;;;;15.70;6.13;;;;;;;1.84;100.00;101090.34;10458987;28;20049;-58
2022/01/07 03:47:34;;;;;;;10.85;3.95;;;;;;;1.84;100.00;101077.44;10459467;28;20049;-57
2022/01/07 03:52:36;;;;;;;14.68;5.00;;;;;;;1.68;100.00;101076.81;10458062;28;20045;-54
2022/01/07 03:57:39;;;;;;;9.82;4.95;;;;;;;1.79;100.00;101064.59;10459016;28;20048;-58
2022/01/07 04:02:42;;;;;;;9.85;4.85;;;;;;;1.76;100.00;101058.63;10459005;28;20118;-53
2022/01/07 04:07:45;;;;;;;15.13;6.28;;;;;;;1.65;100.00;101057.09;10458538;28;20506;-55
2022/01/07 04:12:47;;;;;;;12.85;5.35;;;;;;;1.60;100.00;101052.88;10458286;28;20045;-58
2022/01/07 04:17:52;;;;;;;14.00;5.97;;;;;;;1.63;100.00;101047.66;10458334;28;20057;-56
2022/01/07 04:22:55;;;;;;;9.68;5.13;;;;;;;1.74;100.00;101045.75;10457564;28;20411;-54
2022/01/07 04:28:06;;;;;;;10.80;5.38;;;;;;;1.64;100.00;101046.78;10457694;28;20053;-52
2022/01/07 04:33:11;;;;;;;11.82;6.60;;;;;;;1.76;100.00;101040.56;10457868;28;20055;-56
2022/01/07 04:38:13;;;;;;;13.70;7.05;;;;;;;1.53;100.00;101035.78;10457603;28;20053;-54
2022/01/07 04:43:16;;;;;;;17.40;7.80;;;;;;;1.52;100.00;101036.66;10457125;28;20057;-57
2022/01/07 04:48:19;;;;;;;17.88;6.10;;;;;;;1.58;100.00;101042.59;10457273;28;20049;-59
2022/01/07 04:53:21;;;;;;;18.85;7.43;;;;;;;1.73;100.00;101040.59;10455895;28;20045;-57
2022/01/07 04:58:23;;;;;;;15.13;7.38;;;;;;;1.74;100.00;101034.56;10455993;28;20375;-56
2022/01/07 05:03:26;;;;;;;10.73;7.05;;;;;;;1.87;100.00;101025.75;10457166;28;20052;-57
2022/01/07 05:08:28;;;;;;;11.65;7.20;;;;;;;1.78;100.00;101023.31;10456236;28;20485;-58
2022/01/07 05:13:30;;;;;;;11.48;7.70;;;;;;;1.81;100.00;101013.78;10456548;28;20048;-59
2022/01/07 05:18:33;;;;;;;10.93;7.30;;;;;;;1.88;100.00;101006.78;10456393;28;20500;-58
2022/01/07 05:23:35;;;;;;;15.02;9.00;;;;;;;2.00;100.00;101005.69;10456326;28;20060;-57
2022/01/07 05:28:38;;;;;;;14.43;8.25;;;;;;;2.00;100.00;100996.25;10455376;28;20053;-58
2022/01/07 05:33:40;;;;;;;11.35;8.05;;;;;;;2.08;100.00;101008.16;10456105;28;20071;-58
2022/01/07 05:38:43;;;;;;;15.05;9.32;;;;;;;2.06;100.00;100999.59;10456538;28;20053;-56
2022/01/07 05:43:45;;;;;;;8.48;6.40;;;;;;;2.22;100.00;100990.66;10455852;28;20060;-57
2022/01/07 05:48:48;;;;;;;12.25;9.15;;;;;;;2.13;100.00;100983.91;10455300;28;20140;-58
2022/01/07 05:53:50;;;;;;;12.65;9.70;;;;;;;2.20;100.00;100974.31;10454842;28;20048;-57
2022/01/07 05:58:53;;;;;;;17.80;9.93;;;;;;;2.22;100.00;100972.59;10454517;28;20049;-58
2022/01/07 06:03:55;;;;;;;15.57;11.45;;;;;;;2.19;100.00;100976.06;10455285;28;20493;-57
2022/01/07 06:08:58;;;;;;;21.45;12.38;;;;;;;2.34;100.00;100987.00;10461133;28;20045;-57
2022/01/07 06:14:00;;;;;;;12.93;10.70;;;;;;;2.42;100.00;100974.72;10463700;28;20053;-55
2022/01/07 06:19:02;;;;;;;18.42;14.13;;;;;;;2.39;100.00;100986.00;10461803;28;20056;-56
2022/01/07 06:24:06;;;;;;;21.33;13.05;;;;;;;2.48;100.00;100981.53;10462735;28;20064;-55
2022/01/07 06:29:08;;;;;;;17.27;11.70;;;;;;;2.56;100.00;100979.63;10462888;28;20049;-56
2022/01/07 06:34:11;;;;;;;17.33;13.85;;;;;;;2.52;100.00;100990.91;10462417;28;20167;-58
2022/01/07 06:39:14;;;;;;;19.10;10.73;;;;;;;2.65;100.00;100989.75;10461973;28;20049;-58
2022/01/07 06:44:17;;;;;;;24.13;15.60;;;;;;;2.63;100.00;101004.47;10462059;28;20504;-60
2022/01/07 06:49:19;;;;;;;17.15;15.35;;;;;;;2.79;100.00;100999.81;10462095;28;20052;-56
2022/01/07 06:54:22;;;;;;;19.70;12.25;;;;;;;2.87;100.00;101000.47;10460519;28;20049;-57
2022/01/07 06:59:24;;;;;;;15.85;11.60;;;;;;;2.79;100.00;100999.81;10461199;28;20053;-55
2022/01/07 07:04:28;;;;;;;19.13;13.00;;;;;;;2.82;100.00;100999.75;10459951;28;20407;-58
2022/01/07 07:09:31;;;;;;;22.20;12.82;;;;;;;2.89;100.00;101011.66;10460984;28;20045;-58
2022/01/07 07:14:33;;;;;;;18.33;12.27;;;;;;;2.96;100.00;101010.63;10461002;28;20049;-56
2022/01/07 07:19:35;;;;;;;17.70;14.25;;;;;;;2.90;100.00;101002.16;10459665;28;20056;-56
2022/01/07 07:24:38;;;;;;;14.38;11.05;;;;;;;2.95;100.00;101003.75;10459106;28;20056;-51
2022/01/07 07:29:41;;;;;;;21.55;14.52;;;;;;;2.93;100.00;101000.34;10460832;28;20051;-58
2022/01/07 07:34:57;;;;;;;25.70;15.15;;;;;;;3.06;100.00;101003.53;10459689;28;20041;-53
2022/01/07 07:40:00;;;;;;;22.48;14.18;;;;;;;3.11;100.00;100998.22;10460233;28;20052;-53
2022/01/07 07:45:03;;;;;;;24.20;15.40;;;;;;;3.09;100.00;101005.19;10459689;28;20485;-58
2022/01/07 07:50:05;;;;;;;18.48;13.18;;;;;;;3.06;100.00;101002.66;10459274;28;20057;-58
2022/01/07 07:55:08;;;;;;;21.15;15.70;;;;;;;3.22;100.00;101003.16;10459986;28;20049;-56
2022/01/07 08:00:11;;;;;;;35.55;17.02;;;;;;;3.21;100.00;100996.28;10459564;28;20405;-58
2022/01/07 08:05:13;;;;;;;24.92;15.25;;;;;;;3.38;100.00;100988.97;10458676;28;20397;-59
2022/01/07 08:10:22;;;;;;;18.05;12.82;;;;;;;3.41;100.00;100996.66;10458517;28;20045;-58
2022/01/07 08:20:46;;;;;;;19.20;14.20;;;;;;;3.45;100.00;100977.59;10458196;28;20052;-54
2022/01/07 08:25:48;;;;;;;20.92;14.48;;;;;;;3.53;100.00;100987.72;10459067;28;20056;-58
2022/01/07 08:36:09;;;;;;;24.67;18.23;;;;;;;3.57;100.00;100999.72;10456639;28;20110;-57
2022/01/07 08:41:12;;;;;;;18.63;14.48;;;;;;;3.59;100.00;100997.94;10457560;28;20060;-59
2022/01/07 08:46:15;;;;;;;24.48;15.70;;;;;;;3.71;100.00;100984.66;10456964;28;20413;-57
2022/01/07 08:51:18;;;;;;;23.48;17.85;;;;;;;3.51;100.00;100990.38;10457114;28;20087;-59
2022/01/07 08:56:26;;;;;;;31.40;19.00;;;;;;;3.54;100.00;100987.69;10457839;28;20087;-58
2022/01/07 09:01:28;;;;;;;18.20;14.80;;;;;;;3.64;100.00;100997.81;10456829;28;20063;-58
2022/01/07 09:06:31;;;;;;;20.75;13.65;;;;;;;3.72;100.00;100980.34;10456752;28;20049;-56
2022/01/07 09:11:34;;;;;;;18.60;13.82;;;;;;;3.78;100.00;100989.69;10456663;28;20045;-55
2022/01/07 09:16:36;;;;;;;17.70;10.98;;;;;;;3.78;100.00;100993.13;10456362;28;20507;-57
2022/01/07 09:21:39;;;;;;;23.58;13.65;;;;;;;3.94;100.00;100980.63;10455355;28;20053;-59
2022/01/07 09:26:41;;;;;;;23.00;12.55;;;;;;;3.94;100.00;100974.63;10455992;28;20382;-58
2022/01/07 09:31:43;;;;;;;22.05;15.13;;;;;;;3.85;100.00;100968.78;10455924;28;20045;-57
2022/01/07 09:36:46;;;;;;;18.75;13.85;;;;;;;3.87;100.00;100966.16;10456450;28;20129;-58
2022/01/07 09:41:48;;;;;;;23.10;12.32;;;;;;;3.89;100.00;100979.91;10458468;28;20059;-57
2022/01/07 09:46:52;;;;;;;22.10;13.88;;;;;;;3.80;100.00;100983.59;10464288;28;20053;-59
2022/01/07 09:51:54;;;;;;;17.05;12.05;;;;;;;3.88;100.00;100983.38;10463876;28;20401;-58
2022/01/07 09:56:56;;;;;;;22.27;12.75;;;;;;;4.12;100.00;100978.44;10462487;28;20045;-57
2022/01/07 10:02:07;;;;;;;18.70;13.40;;;;;;;4.03;100.00;100964.81;10463746;28;20057;-57
2022/01/07 10:07:24;;;;;;;17.25;12.43;;;;;;;4.32;100.00;100959.72;10463349;28;20051;-54
2022/01/07 10:12:28;;;;;;;26.20;12.65;;;;;;;4.38;100.00;100960.41;10463391;28;20065;-58
2022/01/07 10:17:37;;;;;;;20.95;13.20;;;;;;;4.35;100.00;100944.09;10463634;28;20045;-56
2022/01/07 10:22:55;;;;;;;21.98;12.70;;;;;;;4.50;100.00;100947.97;10461906;28;20075;-57
2022/01/07 10:28:06;;;;;;;20.77;10.70;;;;;;;4.40;100.00;100940.47;10463215;28;20128;-55
2022/01/07 10:33:27;;;;;;;19.67;10.70;;;;;;;4.62;100.00;100939.81;10461548;28;20055;-55
2022/01/07 10:38:29;;;;;;;19.77;11.60;;;;;;;4.60;100.00;100939.03;10460831;28;20477;-55
2022/01/07 10:43:33;;;;;;;21.98;12.70;;;;;;;4.73;100.00;100927.38;10461867;28;20094;-55
2022/01/07 10:48:42;;;;;;;18.90;9.70;;;;;;;4.46;100.00;100924.72;10461791;28;20128;-57
2022/01/07 10:53:53;;;;;;;20.42;10.85;;;;;;;4.47;100.00;100926.44;10460013;28;20064;-53
2022/01/07 10:59:06;;;;;;;13.67;9.03;;;;;;;4.79;100.00;100918.56;10460659;28;20052;-58
2022/01/07 11:04:12;;;;;;;16.90;8.63;;;;;;;4.93;100.00;100911.19;10461659;28;20044;-57
2022/01/07 11:09:16;;;;;;;15.57;8.35;;;;;;;4.79;100.00;100909.03;10459856;28;20041;-58
2022/01/07 11:14:32;;;;;;;15.88;8.65;;;;;;;5.09;100.00;100905.50;10460329;28;20049;-58
2022/01/07 11:19:39;;;;;;;19.30;7.35;;;;;;;5.05;100.00;100898.72;10460609;28;20496;-58
2022/01/07 11:24:51;;;;;;;14.52;7.78;;;;;;;5.17;100.00;100906.94;10459321;28;20045;-57
2022/01/07 11:30:11;;;;;;;18.07;7.17;;;;;;;5.19;100.00;100912.06;10460350;28;20128;-59
2022/01/07 11:35:19;;;;;;;11.13;6.57;;;;;;;5.06;100.00;100909.06;10459589;28;20405;-59
2022/01/07 11:40:31;;;;;;;12.50;6.72;;;;;;;5.26;100.00;100910.13;10459781;28;20045;-57
2022/01/07 11:45:33;;;;;;;9.02;5.50;;;;;;;5.36;100.00;100914.09;10459765;28;20091;-58
2022/01/07 11:50:54;;;;;;;13.38;6.40;;;;;;;5.44;100.00;100895.69;10459256;28;20049;-56
2022/01/07 11:56:01;;;;;;;13.32;5.50;;;;;;;5.34;100.00;100908.97;10459178;28;20045;-58
2022/01/07 12:01:04;;;;;;;13.32;5.78;;;;;;;5.51;100.00;100912.75;10458949;28;20049;-55
2022/01/07 12:06:28;;;;;;;8.40;5.07;;;;;;;5.74;99.65;100907.59;10459023;28;20053;-59
2022/01/07 12:11:34;;;;;;;8.85;4.50;;;;;;;5.56;99.29;100903.03;10458594;28;20045;-54
2022/01/07 12:16:38;;;;;;;10.75;5.07;;;;;;;5.60;99.08;100904.66;10458816;28;20386;-57
2022/01/07 12:21:41;;;;;;;9.30;4.13;;;;;;;5.56;96.17;100905.63;10458008;28;20063;-54
2022/01/07 12:26:44;;;;;;;6.70;4.55;;;;;;;5.49;96.80;100904.16;10457887;28;20056;-53
2022/01/07 12:31:50;;;;;;;8.50;4.85;;;;;;;5.57;98.37;100899.56;10457602;28;20497;-52
2022/01/07 12:37:06;;;;;;;11.68;4.30;;;;;;;5.55;97.13;100896.16;10457605;28;20443;-57
2022/01/07 12:42:10;;;;;;;10.55;4.20;;;;;;;5.50;97.51;100888.53;10457756;28;20048;-57
2022/01/07 12:47:15;;;;;;;11.85;4.70;;;;;;;5.45;98.20;100880.06;10457607;28;20049;-55
2022/01/07 12:52:33;;;;;;;14.65;4.68;;;;;;;5.84;97.01;100876.09;10456833;28;20058;-56
2022/01/07 12:57:46;;;;;;;8.85;3.97;;;;;;;5.65;95.00;100881.94;10457120;28;20052;-56
2022/01/07 13:02:59;;;;;;;13.82;4.60;;;;;;;5.59;97.13;100866.56;10457442;28;20055;-57
2022/01/07 13:08:08;;;;;;;8.13;4.40;;;;;;;5.47;96.57;100860.06;10456859;28;20174;-56
2022/01/07 13:13:22;;;;;;;8.75;4.65;;;;;;;5.70;97.64;100853.19;10455619;28;20045;-49
2022/01/07 13:18:40;;;;;;;11.73;4.72;;;;;;;5.67;97.02;100851.56;10455643;28;20049;-51
2022/01/07 13:23:56;;;;;;;10.82;5.35;;;;;;;5.56;97.52;100844.19;10456409;28;20048;-52
2022/01/07 13:29:14;;;;;;;12.23;6.90;;;;;;;5.57;96.78;100858.00;10455979;28;20041;-50
2022/01/07 13:34:27;;;;;;;12.30;5.68;;;;;;;5.79;97.18;100860.66;10457851;28;20053;-56
2022/01/07 13:39:46;;;;;;;17.90;7.10;;;;;;;5.59;96.70;100862.22;10456688;28;20444;-52
2022/01/07 13:44:57;;;;;;;7.47;5.15;;;;;;;5.54;97.93;100852.91;10456034;28;20053;-50
2022/01/07 13:50:14;;;;;;;13.77;6.30;;;;;;;5.52;97.82;100844.31;10455864;28;20137;-53
2022/01/07 13:55:44;;;;;;;15.35;8.88;;;;;;;5.50;97.68;100849.56;10455548;28;20091;-52
2022/01/07 14:00:48;;;;;;;14.25;6.18;;;;;;;5.38;99.32;100850.00;10455070;28;20056;-51
2022/01/07 14:06:04;;;;;;;12.65;6.75;;;;;;;5.40;99.55;100849.03;10455792;28;20074;-51
2022/01/07 14:11:14;;;;;;;16.58;7.30;;;;;;;5.31;98.95;100845.91;10454680;28;20060;-53
2022/01/07 14:16:23;;;;;;;13.63;6.65;;;;;;;5.34;98.78;100848.41;10454187;28;20053;-57
2022/01/07 14:21:26;;;;;;;17.42;6.03;;;;;;;5.13;100.00;100835.28;10455393;28;20053;-56
2022/01/07 14:26:31;;;;;;;9.45;6.40;;;;;;;5.14;99.87;100851.69;10455211;28;20052;-50
2022/01/07 14:31:33;;;;;;;13.05;5.70;;;;;;;5.24;99.59;100842.69;10462516;28;20053;-55
2022/01/07 14:36:36;;;;;;;13.23;6.22;;;;;;;5.43;100.00;100844.63;10462638;28;20045;-53
2022/01/07 14:41:38;;;;;;;12.70;6.50;;;;;;;5.36;99.16;100849.19;10462164;28;20056;-54
2022/01/07 14:46:41;;;;;;;12.38;6.60;;;;;;;5.25;100.00;100856.53;10461982;28;20076;-53
2022/01/07 14:51:44;;;;;;;23.10;6.53;;;;;;;5.20;100.00;100843.69;10460044;28;20052;-54
2022/01/07 14:56:46;;;;;;;13.23;6.13;;;;;;;5.27;99.69;100845.19;10461578;28;20056;-57
2022/01/07 15:02:09;;;;;;;14.73;6.47;;;;;;;5.27;99.24;100849.53;10463430;28;20133;-53
2022/01/07 15:07:12;;;;;;;13.82;5.60;;;;;;;5.07;100.00;100842.41;10461475;28;20059;-53
2022/01/07 15:12:14;;;;;;;12.73;4.95;;;;;;;4.89;100.00;100846.47;10460809;28;20056;-52
2022/01/07 15:17:16;;;;;;;9.05;4.60;;;;;;;4.84;100.00;100847.47;10460779;28;20064;-55
2022/01/07 15:22:19;;;;;;;17.75;5.07;;;;;;;4.46;100.00;100859.91;10460777;28;20071;-50
2022/01/07 15:27:21;;;;;;;13.80;7.97;;;;;;;4.10;100.00;100864.44;10460482;28;20055;-52
2022/01/07 15:32:24;;;;;;;15.02;5.57;;;;;;;3.63;100.00;100872.69;10460291;28;20044;-56
2022/01/07 15:37:26;;;;;;;8.93;3.83;;;;;;;3.50;100.00;100867.00;10460713;28;20056;-55
2022/01/07 15:42:29;;;;;;;5.07;2.55;;;;;;;3.30;100.00;100883.06;10461065;28;20135;-52
2022/01/07 15:47:31;;;;;;;6.22;2.38;;;;;;;3.27;100.00;100892.63;10459441;28;20049;-52
2022/01/07 15:52:33;;;;;;;8.00;2.85;;;;;;;2.89;100.00;100897.00;10459122;28;20052;-51
2022/01/07 15:57:36;;;;;;;5.25;2.40;;;;;;;2.65;100.00;100893.28;10460190;28;20053;-55
2022/01/07 16:02:38;;;;;;;7.10;1.55;;;;;;;2.55;100.00;100893.47;10457755;28;20493;-50
2022/01/07 16:07:41;;;;;;;4.07;1.58;;;;;;;2.57;100.00;100881.38;10458936;28;20053;-52
2022/01/07 16:12:43;;;;;;;12.65;2.58;;;;;;;2.48;100.00;100915.16;10458686;28;20061;-52
2022/01/07 16:17:46;;;;;;;7.00;3.38;;;;;;;2.36;100.00;100911.13;10458316;28;20055;-54
2022/01/07 16:22:50;;;;;;;4.07;1.65;;;;;;;2.09;100.00;100891.06;10458158;28;20389;-52
2022/01/07 16:27:52;;;;;;;7.28;2.85;;;;;;;2.10;100.00;100883.28;10458049;28;20045;-49
2022/01/07 16:32:55;;;;;;;5.60;2.00;;;;;;;1.98;100.00;100884.34;10457951;28;20064;-52
2022/01/07 16:37:57;;;;;;;2.83;1.77;;;;;;;2.03;100.00;100886.84;10457661;28;20401;-50
2022/01/07 16:42:59;;;;;;;4.25;2.17;;;;;;;2.13;100.00;100888.34;10456911;28;20507;-50
2022/01/07 16:48:02;;;;;;;4.88;1.75;;;;;;;2.35;100.00;100885.31;10457370;28;20409;-53
2022/01/07 16:53:05;;;;;;;4.00;1.30;;;;;;;2.37;100.00;100891.28;10457137;28;20056;-52
2022/01/07 16:58:12;;;;;;;6.13;2.85;;;;;;;2.16;100.00;100902.94;10460064;28;20068;-55
2022/01/07 17:03:14;;;;;;;5.35;2.22;;;;;;;2.21;100.00;100883.88;10456927;28;20045;-54
2022/01/07 17:08:17;;;;;;;6.97;2.40;;;;;;;1.98;100.00;100883.50;10457015;28;20073;-54
2022/01/07 17:13:19;;;;;;;3.70;2.50;;;;;;;2.32;100.00;100880.22;10456725;28;20045;-53
2022/01/07 17:18:23;;;;;;;3.38;2.50;;;;;;;2.07;100.00;100893.66;10456699;28;20045;-55
2022/01/07 17:23:25;;;;;;;2.65;2.13;;;;;;;2.18;100.00;100889.09;10455270;28;20604;-52
2022/01/07 17:28:28;;;;;;;3.67;2.25;;;;;;;2.17;100.00;100889.13;10456378;28;20049;-52
2022/01/07 17:33:30;;;;;;;3.22;2.00;;;;;;;2.23;100.00;100879.50;10456102;28;20049;-53
2022/01/07 17:38:33;;;;;;;2.40;2.05;;;;;;;1.99;100.00;100867.13;10459080;28;20049;-55
2022/01/07 17:43:35;;;;;;;4.10;1.80;;;;;;;1.95;100.00;100862.91;10456348;28;20067;-55
2022/01/07 17:48:38;;;;;;;3.75;2.03;;;;;;;1.96;100.00;100862.88;10456088;28;20072;-57
2022/01/07 17:53:40;;;;;;;2.17;1.73;;;;;;;1.72;100.00;100863.38;10454611;28;20401;-52
2022/01/07 17:58:42;;;;;;;2.20;2.00;;;;;;;1.68;100.00;100878.06;10455677;28;20052;-53
2022/01/07 18:03:45;;;;;;;3.03;2.28;;;;;;;1.85;100.00;100877.75;10460172;28;20080;-52
2022/01/07 18:08:47;;;;;;;6.47;2.42;;;;;;;1.76;100.00;100888.25;10463444;28;20053;-49
2022/01/07 18:13:49;;;;;;;2.80;2.08;;;;;;;1.94;100.00;100892.22;10462161;28;20048;-55
2022/01/07 18:18:52;;;;;;;3.17;2.00;;;;;;;1.76;100.00;100873.59;10466230;28;20063;-55
2022/01/07 18:23:54;;;;;;;5.28;2.40;;;;;;;1.78;100.00;100871.00;10463140;28;20063;-53
2022/01/07 18:28:57;;;;;;;4.90;3.28;;;;;;;1.76;100.00;100867.59;10462785;28;20064;-53
2022/01/07 18:34:00;;;;;;;3.88;3.20;;;;;;;1.86;100.00;100859.63;10462145;28;20397;-51
2022/01/07 18:39:03;;;;;;;6.20;3.50;;;;;;;1.83;100.00;100866.59;10461199;28;20519;-55
2022/01/07 18:44:07;;;;;;;6.32;4.65;;;;;;;1.47;100.00;100875.00;10462018;28;20057;-53
2022/01/07 18:49:09;;;;;;;11.80;7.43;;;;;;;1.42;100.00;100876.81;10462145;28;20056;-53
2022/01/07 18:54:12;;;;;;;17.83;13.13;;;;;;;1.52;100.00;100884.41;10462572;28;20493;-56
2022/01/07 18:59:15;;;;;;;19.00;12.20;;;;;;;1.52;100.00;100874.09;10462493;28;20056;-57
2022/01/07 19:04:17;;;;;;;14.98;9.65;;;;;;;1.46;100.00;100881.06;10461473;28;20056;-51
2022/01/07 19:09:19;;;;;;;13.50;9.27;;;;;;;1.66;100.00;100878.13;10461102;28;20440;-51
2022/01/07 19:14:22;;;;;;;15.30;11.07;;;;;;;1.57;100.00;100885.19;10459447;28;20049;-51
2022/01/07 19:19:24;;;;;;;12.88;9.52;;;;;;;1.61;100.00;100877.31;10461304;28;20049;-55
2022/01/07 19:24:27;;;;;;;15.63;10.38;;;;;;;1.62;100.00;100883.34;10460730;28;20053;-54
2022/01/07 19:29:29;;;;;;;13.60;10.13;;;;;;;1.29;100.00;100870.19;10460424;28;20378;-55
2022/01/07 19:34:32;;;;;;;11.32;8.57;;;;;;;1.67;100.00;100878.97;10462761;28;20049;-55
2022/01/07 19:39:34;;;;;;;13.50;8.30;;;;;;;1.47;100.00;100875.00;10460193;28;20049;-53
2022/01/07 19:44:37;;;;;;;14.60;9.13;;;;;;;1.58;100.00;100879.13;10459872;28;20063;-53
2022/01/07 19:49:39;;;;;;;16.42;10.18;;;;;;;1.45;100.00;100887.09;10459762;28;20061;-53
2022/01/07 19:54:42;;;;;;;12.20;7.07;;;;;;;1.51;100.00;100886.13;10458286;28;20052;-50
2022/01/07 19:59:45;;;;;;;12.98;7.95;;;;;;;1.54;100.00;100888.66;10458949;28;20056;-53
2022/01/07 20:04:47;;;;;;;11.90;8.10;;;;;;;1.61;100.00;100884.22;10459090;28;20056;-56
2022/01/07 20:09:49;;;;;;;15.85;9.32;;;;;;;1.55;100.00;100874.88;10458937;28;20048;-56
2022/01/07 20:14:52;;;;;;;11.25;6.32;;;;;;;1.44;100.00;100879.38;10460894;28;20133;-53
2022/01/07 20:19:54;;;;;;;13.55;8.32;;;;;;;1.47;100.00;100884.50;10457611;28;20044;-54
2022/01/07 20:25:00;;;;;;;10.68;7.55;;;;;;;1.69;100.00;100891.84;10458086;28;20056;-54
2022/01/07 20:30:04;;;;;;;14.80;7.93;;;;;;;1.67;100.00;100889.28;10458936;28;20051;-52
2022/01/07 20:35:07;;;;;;;13.20;8.00;;;;;;;1.60;100.00;100888.53;10457800;28;20428;-53
2022/01/07 20:40:14;;;;;;;11.32;8.15;;;;;;;1.28;100.00;100889.97;10457096;28;20052;-55
2022/01/07 20:45:17;;;;;;;23.25;10.05;;;;;;;1.42;100.00;100891.47;10457791;28;20057;-52
2022/01/07 20:50:20;;;;;;;18.10;10.10;;;;;;;1.36;100.00;100896.72;10461350;28;20053;-53
2022/01/07 20:55:22;;;;;;;13.35;8.23;;;;;;;1.30;100.00;100890.78;10456774;28;20396;-54
2022/01/07 21:00:26;;;;;;;17.98;9.55;;;;;;;1.32;100.00;100889.94;10457038;28;20059;-57
2022/01/07 21:05:28;;;;;;;17.02;9.77;;;;;;;1.43;100.00;100894.03;10456935;28;20056;-54
2022/01/07 21:10:30;;;;;;;19.65;12.23;;;;;;;1.23;100.00;100886.63;10456913;28;20049;-54
2022/01/07 21:15:33;;;;;;;30.60;16.92;;;;;;;1.04;100.00;100898.13;10456536;28;20505;-53
2022/01/07 21:20:36;;;;;;;13.82;10.45;;;;;;;1.25;100.00;100891.75;10456665;28;20053;-55
2022/01/07 21:25:38;;;;;;;19.70;10.52;;;;;;;1.28;100.00;100900.28;10456202;28;20060;-54
2022/01/07 21:30:41;;;;;;;26.15;12.38;;;;;;;1.41;100.00;100893.19;10460384;28;20053;-51
2022/01/07 21:35:44;;;;;;;17.95;9.68;;;;;;;1.28;100.00;100902.03;10456276;28;20053;-53
2022/01/07 21:40:46;;;;;;;18.08;10.57;;;;;;;1.29;100.00;100898.56;10463679;28;20052;-52
2022/01/07 21:45:48;;;;;;;22.45;14.27;;;;;;;1.17;100.00;100902.19;10464099;28;20057;-53
2022/01/07 21:50:53;;;;;;;16.90;9.40;;;;;;;1.21;100.00;100895.25;10464088;28;20504;-55
2022/01/07 21:55:56;;;;;;;22.75;12.25;;;;;;;1.07;100.00;100898.06;10464180;28;20056;-52
2022/01/07 22:00:58;;;;;;;20.77;11.95;;;;;;;1.13;100.00;100905.72;10463963;28;20056;-53
2022/01/07 22:06:00;;;;;;;17.92;10.32;;;;;;;1.31;100.00;100899.38;10463891;28;20056;-57
2022/01/07 22:11:03;;;;;;;19.02;11.05;;;;;;;1.20;100.00;100903.88;10463675;28;20049;-51
2022/01/07 22:16:05;;;;;;;16.17;13.25;;;;;;;1.09;100.00;100912.66;10463294;28;20485;-50
2022/01/07 22:21:08;;;;;;;25.55;15.40;;;;;;;1.07;100.00;100905.81;10463283;28;20071;-49
2022/01/07 22:26:10;;;;;;;21.42;15.48;;;;;;;1.00;100.00;100912.78;10463007;28;20049;-54
2022/01/07 22:31:13;;;;;;;28.98;18.33;;;;;;;0.84;100.00;100911.31;10462598;28;20401;-54
2022/01/07 22:36:15;;;;;;;30.50;20.73;;;;;;;0.81;100.00;100904.50;10462576;28;20056;-53
2022/01/07 22:41:18;;;;;;;32.33;20.85;;;;;;;0.80;100.00;100902.78;10462346;28;20511;-52
2022/01/07 22:46:20;;;;;;;21.92;17.55;;;;;;;1.04;100.00;100899.00;10462138;28;20421;-54
2022/01/07 22:51:22;;;;;;;31.33;20.67;;;;;;;1.05;100.00;100903.25;10461512;28;20056;-49
2022/01/07 22:56:25;;;;;;;35.03;20.63;;;;;;;1.01;100.00;100911.94;10461402;28;20071;-53
2022/01/07 23:01:28;;;;;;;23.63;17.52;;;;;;;0.98;100.00;100914.56;10461627;28;20057;-51
2022/01/07 23:06:30;;;;;;;35.53;19.80;;;;;;;0.79;100.00;100910.53;10462099;28;20045;-54
2022/01/07 23:11:33;;;;;;;28.67;20.83;;;;;;;0.90;100.00;100906.91;10461137;28;20387;-54